createdAt,value
2023-05-12T00:00:17.051Z,84.65
2023-05-12T00:01:16.931Z,84.45
2023-05-12T00:02:16.973Z,84.39
2023-05-12T00:03:16.968Z,84.55
2023-05-12T00:04:16.910Z,84.34
2023-05-12T00:05:16.913Z,84.34
2023-05-12T00:06:16.897Z,84.34
2023-05-12T00:07:16.866Z,84.04
2023-05-12T00:08:16.931Z,84.00
2023-05-12T00:09:16.866Z,83.07
2023-05-12T00:10:16.870Z,83.68
2023-05-12T00:11:16.842Z,84.08
2023-05-12T00:12:16.844Z,84.14
2023-05-12T00:13:16.834Z,83.68
2023-05-12T00:14:17.857Z,84.28
2023-05-12T00:15:16.812Z,83.94
2023-05-12T00:16:16.826Z,83.74
2023-05-12T00:17:16.828Z,84.14
2023-05-12T00:18:16.789Z,83.68
2023-05-12T00:19:17.309Z,84.33
2023-05-12T00:20:16.933Z,85.27
2023-05-12T00:21:16.797Z,85.82
2023-05-12T00:22:16.762Z,86.57
2023-05-12T00:23:16.754Z,87.83
2023-05-12T00:24:16.758Z,88.28
2023-05-12T00:25:16.779Z,88.78
2023-05-12T00:26:16.751Z,88.89
2023-05-12T00:27:16.754Z,89.70
2023-05-12T00:28:16.726Z,89.43
2023-05-12T00:29:17.712Z,89.09
2023-05-12T00:30:16.786Z,89.25
2023-05-12T00:31:16.790Z,89.35
2023-05-12T00:32:16.698Z,88.90
2023-05-12T00:33:16.692Z,88.46
2023-05-12T00:34:16.723Z,88.05
2023-05-12T00:35:16.692Z,87.54
2023-05-12T00:36:16.749Z,87.74
2023-05-12T00:37:16.685Z,87.54
2023-05-12T00:38:16.656Z,87.24
2023-05-12T00:39:16.654Z,87.14
2023-05-12T00:40:16.754Z,87.54
2023-05-12T00:41:16.642Z,87.51
2023-05-12T00:42:16.672Z,87.10
2023-05-12T00:43:16.634Z,86.43
2023-05-12T00:44:16.662Z,86.73
2023-05-12T00:45:16.624Z,86.94
2023-05-12T00:46:16.626Z,87.20
2023-05-12T00:47:16.656Z,86.79
2023-05-12T00:48:16.602Z,86.08
2023-05-12T00:49:16.697Z,86.29
2023-05-12T00:50:16.628Z,86.29
2023-05-12T00:51:16.587Z,86.02
2023-05-12T00:52:16.596Z,86.39
2023-05-12T00:53:16.573Z,85.93
2023-05-12T00:54:16.592Z,86.68
2023-05-12T00:55:16.607Z,87.48
2023-05-12T00:56:16.572Z,87.69
2023-05-12T00:57:16.536Z,87.59
2023-05-12T00:58:16.607Z,87.18
2023-05-12T00:59:16.572Z,87.18
2023-05-12T01:00:16.549Z,87.93
2023-05-12T01:01:16.650Z,88.75
2023-05-12T01:02:16.558Z,88.75
2023-05-12T01:03:16.568Z,88.48
2023-05-12T01:04:16.528Z,88.28
2023-05-12T01:05:16.496Z,88.99
2023-05-12T01:06:16.518Z,89.35
2023-05-12T01:07:16.499Z,89.09
2023-05-12T01:08:16.471Z,88.68
2023-05-12T01:09:16.500Z,88.99
2023-05-12T01:10:16.517Z,88.54
2023-05-12T01:11:16.480Z,88.90
2023-05-12T01:12:16.448Z,88.40
2023-05-12T01:13:16.472Z,88.40
2023-05-12T01:14:16.460Z,88.29
2023-05-12T01:15:16.433Z,87.54
2023-05-12T01:16:16.457Z,87.14
2023-05-12T01:17:16.453Z,87.69
2023-05-12T01:18:16.439Z,87.89
2023-05-12T01:19:16.540Z,86.88
2023-05-12T01:20:16.439Z,87.08
2023-05-12T01:21:16.400Z,86.22
2023-05-12T01:22:16.384Z,86.33
2023-05-12T01:23:16.377Z,86.33
2023-05-12T01:24:16.390Z,85.82
2023-05-12T01:25:16.422Z,85.07
2023-05-12T01:26:16.353Z,84.91
2023-05-12T01:27:16.355Z,85.21
2023-05-12T01:28:16.341Z,84.67
2023-05-12T01:29:16.339Z,84.67
2023-05-12T01:30:16.376Z,84.67
2023-05-12T01:31:16.792Z,84.77
2023-05-12T01:32:16.327Z,85.27
2023-05-12T01:33:16.299Z,85.11
2023-05-12T01:34:16.369Z,84.97
2023-05-12T01:35:16.305Z,84.97
2023-05-12T01:36:16.366Z,85.27
2023-05-12T01:37:16.302Z,85.31
2023-05-12T01:38:16.319Z,85.68
2023-05-12T01:39:16.255Z,84.87
2023-05-12T01:40:16.303Z,85.38
2023-05-12T01:41:16.274Z,85.27
2023-05-12T01:42:16.244Z,84.77
2023-05-12T01:43:16.261Z,84.97
2023-05-12T01:44:16.283Z,85.62
2023-05-12T01:45:16.241Z,85.62
2023-05-12T01:46:16.316Z,85.52
2023-05-12T01:47:16.248Z,85.31
2023-05-12T01:48:16.240Z,85.72
2023-05-12T01:49:16.187Z,86.13
2023-05-12T01:50:16.208Z,86.07
2023-05-12T01:51:16.184Z,86.68
2023-05-12T01:52:16.227Z,87.08
2023-05-12T01:53:16.181Z,86.83
2023-05-12T01:54:16.187Z,86.43
2023-05-12T01:55:16.168Z,85.82
2023-05-12T01:56:16.165Z,85.72
2023-05-12T01:57:16.169Z,85.07
2023-05-12T01:58:16.147Z,85.11
2023-05-12T01:59:16.158Z,85.27
2023-05-12T02:00:16.122Z,85.72
2023-05-12T02:01:16.183Z,85.21
2023-05-12T02:02:16.248Z,85.17
2023-05-12T02:03:16.149Z,85.27
2023-05-12T02:04:16.376Z,84.87
2023-05-12T02:05:16.091Z,84.77
2023-05-12T02:06:16.142Z,84.36
2023-05-12T02:07:16.079Z,84.27
2023-05-12T02:08:16.176Z,84.56
2023-05-12T02:09:16.100Z,84.33
2023-05-12T02:10:16.102Z,84.22
2023-05-12T02:11:16.060Z,84.22
2023-05-12T02:12:16.073Z,84.06
2023-05-12T02:13:16.147Z,84.27
2023-05-12T02:14:16.026Z,84.02
2023-05-12T02:15:16.034Z,84.02
2023-05-12T02:16:16.016Z,83.92
2023-05-12T02:17:16.080Z,83.92
2023-05-12T02:18:16.057Z,82.97
2023-05-12T02:19:15.993Z,83.27
2023-05-12T02:20:15.988Z,84.08
2023-05-12T02:21:16.042Z,83.78
2023-05-12T02:22:15.996Z,83.21
2023-05-12T02:23:16.010Z,83.01
2023-05-12T02:24:16.005Z,83.11
2023-05-12T02:25:16.097Z,83.11
2023-05-12T02:26:16.724Z,82.95
2023-05-12T02:27:15.958Z,83.76
2023-05-12T02:28:15.973Z,84.24
2023-05-12T02:29:15.927Z,85.15
2023-05-12T02:30:15.948Z,85.86
2023-05-12T02:31:15.929Z,86.51
2023-05-12T02:32:15.935Z,86.57
2023-05-12T02:33:15.924Z,86.63
2023-05-12T02:34:15.901Z,85.99
2023-05-12T02:35:15.911Z,84.81
2023-05-12T02:36:15.909Z,85.15
2023-05-12T02:37:15.944Z,85.76
2023-05-12T02:38:15.899Z,86.16
2023-05-12T02:39:15.907Z,86.31
2023-05-12T02:40:15.870Z,86.61
2023-05-12T02:41:15.828Z,86.71
2023-05-12T02:42:15.854Z,86.21
2023-05-12T02:43:15.831Z,86.77
2023-05-12T02:44:15.880Z,86.68
2023-05-12T02:45:15.898Z,85.46
2023-05-12T02:46:16.926Z,85.76
2023-05-12T02:47:15.837Z,85.76
2023-05-12T02:48:15.822Z,86.47
2023-05-12T02:49:15.808Z,87.02
2023-05-12T02:50:15.798Z,86.71
2023-05-12T02:51:15.802Z,86.96
2023-05-12T02:52:15.774Z,86.96
2023-05-12T02:53:15.803Z,87.97
2023-05-12T02:54:16.789Z,87.30
2023-05-12T02:55:15.770Z,87.77
2023-05-12T02:56:15.776Z,87.37
2023-05-12T02:57:15.732Z,87.63
2023-05-12T02:58:15.780Z,87.26
2023-05-12T02:59:15.740Z,87.57
2023-05-12T03:00:15.739Z,87.81
2023-05-12T03:01:15.752Z,88.21
2023-05-12T03:02:15.760Z,87.81
2023-05-12T03:03:15.915Z,88.12
2023-05-12T03:04:15.727Z,87.97
2023-05-12T03:05:15.721Z,87.12
2023-05-12T03:06:15.696Z,87.16
2023-05-12T03:07:15.727Z,86.91
2023-05-12T03:08:15.683Z,86.86
2023-05-12T03:09:15.699Z,87.37
2023-05-12T03:10:15.667Z,86.71
2023-05-12T03:11:15.663Z,87.02
2023-05-12T03:12:15.664Z,86.21
2023-05-12T03:13:15.640Z,86.31
2023-05-12T03:14:15.640Z,86.10
2023-05-12T03:15:15.627Z,86.51
2023-05-12T03:16:16.474Z,86.10
2023-05-12T03:17:15.755Z,86.21
2023-05-12T03:18:15.595Z,86.41
2023-05-12T03:19:15.620Z,86.37
2023-05-12T03:20:15.576Z,85.80
2023-05-12T03:21:15.590Z,86.65
2023-05-12T03:22:15.647Z,86.91
2023-05-12T03:23:15.580Z,86.61
2023-05-12T03:24:15.572Z,86.31
2023-05-12T03:25:15.559Z,85.86
2023-05-12T03:26:15.594Z,84.99
2023-05-12T03:27:15.650Z,85.36
2023-05-12T03:28:15.534Z,85.15
2023-05-12T03:29:15.558Z,85.05
2023-05-12T03:30:15.508Z,85.36
2023-05-12T03:31:15.572Z,85.05
2023-05-12T03:32:15.520Z,85.39
2023-05-12T03:33:15.552Z,85.36
2023-05-12T03:34:15.493Z,85.56
2023-05-12T03:35:15.503Z,84.95
2023-05-12T03:36:15.496Z,84.95
2023-05-12T03:37:15.528Z,84.81
2023-05-12T03:38:15.520Z,84.30
2023-05-12T03:39:15.475Z,84.34
2023-05-12T03:40:15.512Z,84.81
2023-05-12T03:41:15.478Z,84.41
2023-05-12T03:42:15.486Z,83.90
2023-05-12T03:43:15.491Z,84.10
2023-05-12T03:44:15.496Z,84.00
2023-05-12T03:45:15.484Z,84.41
2023-05-12T03:46:15.577Z,84.14
2023-05-12T03:47:15.438Z,84.44
2023-05-12T03:48:15.478Z,84.24
2023-05-12T03:49:15.410Z,84.75
2023-05-12T03:50:15.470Z,84.75
2023-05-12T03:51:15.404Z,84.85
2023-05-12T03:52:15.392Z,84.95
2023-05-12T03:53:15.414Z,84.85
2023-05-12T03:54:15.366Z,84.81
2023-05-12T03:55:15.387Z,84.34
2023-05-12T03:56:15.353Z,84.70
2023-05-12T03:57:15.350Z,84.55
2023-05-12T03:58:15.369Z,84.41
2023-05-12T03:59:15.328Z,84.27
2023-05-12T04:00:15.342Z,84.16
2023-05-12T04:01:49.027Z,83.90
2023-05-12T04:02:15.462Z,84.16
2023-05-12T04:03:15.470Z,83.55
2023-05-12T04:04:48.760Z,82.81
2023-05-12T04:05:47.729Z,82.44
2023-05-12T04:06:47.715Z,83.15
2023-05-12T04:07:47.758Z,82.64
2023-05-12T04:08:48.708Z,83.25
2023-05-12T04:09:47.696Z,83.04
2023-05-12T04:10:48.732Z,83.49
2023-05-12T04:11:15.266Z,83.94
2023-05-12T04:12:48.683Z,84.00
2023-05-12T04:13:15.215Z,84.16
2023-05-12T04:14:47.740Z,84.20
2023-05-12T04:15:48.679Z,84.34
2023-05-12T04:16:15.230Z,85.05
2023-05-12T04:17:48.704Z,85.36
2023-05-12T04:18:15.977Z,84.85
2023-05-12T04:19:15.172Z,84.85
2023-05-12T04:20:15.205Z,85.25
2023-05-12T04:21:15.211Z,85.11
2023-05-12T04:22:15.191Z,85.52
2023-05-12T04:23:15.182Z,84.91
2023-05-12T04:24:15.177Z,84.56
2023-05-12T04:25:15.169Z,84.06
2023-05-12T04:26:15.153Z,83.96
2023-05-12T04:27:15.175Z,83.86
2023-05-12T04:28:15.175Z,84.12
2023-05-12T04:29:15.112Z,84.27
2023-05-12T04:30:15.109Z,83.11
2023-05-12T04:31:15.126Z,83.11
2023-05-12T04:32:15.182Z,82.46
2023-05-12T04:33:15.126Z,82.46
2023-05-12T04:34:15.146Z,81.96
2023-05-12T04:35:15.180Z,81.85
2023-05-12T04:36:15.068Z,81.90
2023-05-12T04:37:15.073Z,82.40
2023-05-12T04:38:15.060Z,81.79
2023-05-12T04:39:15.962Z,81.96
2023-05-12T04:40:15.045Z,82.06
2023-05-12T04:41:15.075Z,81.85
2023-05-12T04:42:15.040Z,81.62
2023-05-12T04:44:16.162Z,81.88
2023-05-12T04:45:15.028Z,80.46
2023-05-12T04:46:15.059Z,80.77
2023-05-12T04:47:15.116Z,80.36
2023-05-12T04:48:14.986Z,80.22
2023-05-12T04:49:14.995Z,80.43
2023-05-12T04:50:14.998Z,79.82
2023-05-12T04:51:15.172Z,80.08
2023-05-12T04:52:14.979Z,79.38
2023-05-12T04:53:14.939Z,79.79
2023-05-12T04:54:14.992Z,79.72
2023-05-12T04:55:14.984Z,79.72
2023-05-12T04:56:14.945Z,79.48
2023-05-12T04:57:14.989Z,79.48
2023-05-12T04:58:17.401Z,79.08
2023-05-12T04:59:14.915Z,78.47
2023-05-12T05:00:14.930Z,78.41
2023-05-12T05:01:15.004Z,79.75
2023-05-12T05:02:14.970Z,79.62
2023-05-12T05:03:14.949Z,79.41
2023-05-12T05:04:14.916Z,79.58
2023-05-12T05:05:14.873Z,78.57
2023-05-12T05:06:14.961Z,78.71
2023-05-12T05:07:14.917Z,80.36
2023-05-12T05:08:15.002Z,80.73
2023-05-12T05:09:14.853Z,80.08
2023-05-12T05:10:14.935Z,79.17
2023-05-12T05:11:14.953Z,79.24
2023-05-12T05:12:14.828Z,78.63
2023-05-12T05:13:14.837Z,78.70
2023-05-12T05:14:14.809Z,78.39
2023-05-12T05:15:14.812Z,78.19
2023-05-12T05:16:14.944Z,78.19
2023-05-12T05:17:14.807Z,77.99
2023-05-12T05:18:14.849Z,77.89
2023-05-12T05:19:20.905Z,77.75
2023-05-12T05:20:16.912Z,78.09
2023-05-12T05:21:14.845Z,77.32
2023-05-12T05:22:14.808Z,78.10
2023-05-12T05:23:14.773Z,78.27
2023-05-12T05:24:15.155Z,78.77
2023-05-12T05:25:14.780Z,78.43
2023-05-12T05:26:14.755Z,79.62
2023-05-12T05:27:15.490Z,79.68
2023-05-12T05:28:14.771Z,78.94
2023-05-12T05:29:14.754Z,78.53
2023-05-12T05:30:14.792Z,77.99
2023-05-12T05:31:14.767Z,78.23
2023-05-12T05:32:14.739Z,77.53
2023-05-12T05:33:14.747Z,77.53
2023-05-12T05:34:14.748Z,77.73
2023-05-12T05:35:14.722Z,77.93
2023-05-12T05:36:14.703Z,78.23
2023-05-12T05:37:14.711Z,78.63
2023-05-12T05:38:14.730Z,77.69
2023-05-12T05:39:14.696Z,77.15
2023-05-12T05:40:14.791Z,76.14
2023-05-12T05:41:14.672Z,75.54
2023-05-12T05:42:14.676Z,75.40
2023-05-12T05:43:14.674Z,74.52
2023-05-12T05:44:14.654Z,75.63
2023-05-12T05:45:14.675Z,76.24
2023-05-12T05:46:14.724Z,76.28
2023-05-12T05:47:14.766Z,76.04
2023-05-12T05:48:14.632Z,76.84
2023-05-12T05:49:14.666Z,76.40
2023-05-12T05:50:14.619Z,75.50
2023-05-12T05:51:14.620Z,75.26
2023-05-12T05:52:14.620Z,76.07
2023-05-12T05:53:14.631Z,75.36
2023-05-12T05:54:14.641Z,74.76
2023-05-12T05:55:14.601Z,74.93
2023-05-12T05:56:14.589Z,74.18
2023-05-12T05:57:14.583Z,74.08
2023-05-12T05:58:14.600Z,73.08
2023-05-12T05:59:14.554Z,73.58
2023-05-12T06:00:14.536Z,73.58
2023-05-12T06:01:14.594Z,73.55
2023-05-12T06:02:15.894Z,72.81
2023-05-12T06:03:15.588Z,73.85
2023-05-12T06:04:14.544Z,73.45
2023-05-12T06:05:14.645Z,73.65
2023-05-12T06:06:14.542Z,74.49
2023-05-12T06:07:14.519Z,75.34
2023-05-12T06:08:14.509Z,74.79
2023-05-12T06:09:14.532Z,75.50
2023-05-12T06:10:14.526Z,76.24
2023-05-12T06:11:15.976Z,76.54
2023-05-12T06:12:14.535Z,76.31
2023-05-12T06:13:14.480Z,76.17
2023-05-12T06:14:14.484Z,75.70
2023-05-12T06:15:14.469Z,75.90
2023-05-12T06:16:14.506Z,75.36
2023-05-12T06:17:14.472Z,76.00
2023-05-12T06:18:14.473Z,76.71
2023-05-12T06:19:14.492Z,75.54
2023-05-12T06:20:14.421Z,77.04
2023-05-12T06:21:14.421Z,77.08
2023-05-12T06:22:14.542Z,77.49
2023-05-12T06:23:14.408Z,77.19
2023-05-12T06:24:14.440Z,76.51
2023-05-12T06:25:14.400Z,76.91
2023-05-12T06:26:14.389Z,76.14
2023-05-12T06:27:14.395Z,76.24
2023-05-12T06:28:14.379Z,75.90
2023-05-12T06:29:14.383Z,75.06
2023-05-12T06:30:15.935Z,74.46
2023-05-12T06:31:15.388Z,75.70
2023-05-12T06:32:14.487Z,75.26
2023-05-12T06:33:14.372Z,74.26
2023-05-12T06:34:14.358Z,74.55
2023-05-12T06:35:14.334Z,74.86
2023-05-12T06:36:14.384Z,74.49
2023-05-12T06:37:14.344Z,75.34
2023-05-12T06:38:14.384Z,76.95
2023-05-12T06:39:14.319Z,76.61
2023-05-12T06:40:14.330Z,75.74
2023-05-12T06:41:15.363Z,76.00
2023-05-12T06:42:14.894Z,76.14
2023-05-12T06:43:14.385Z,76.14
2023-05-12T06:44:14.305Z,76.71
2023-05-12T06:45:14.309Z,75.53
2023-05-12T06:46:14.342Z,73.38
2023-05-12T06:47:14.307Z,73.24
2023-05-12T06:48:14.277Z,72.20
2023-05-12T06:49:14.280Z,74.35
2023-05-12T06:50:14.260Z,74.19
2023-05-12T06:51:14.286Z,73.99
2023-05-12T06:52:14.293Z,73.45
2023-05-12T06:53:14.254Z,74.90
2023-05-12T06:54:14.227Z,76.10
2023-05-12T06:55:14.231Z,75.70
2023-05-12T06:56:14.239Z,75.80
2023-05-12T06:57:14.238Z,75.60
2023-05-12T06:58:14.226Z,75.90
2023-05-12T06:59:14.239Z,75.70
2023-05-12T07:00:14.216Z,74.39
2023-05-12T07:01:14.209Z,74.99
2023-05-12T07:02:14.184Z,75.63
2023-05-12T07:03:14.284Z,74.83
2023-05-12T07:04:14.221Z,75.74
2023-05-12T07:05:14.162Z,75.40
2023-05-12T07:06:14.181Z,75.50
2023-05-12T07:07:14.167Z,74.55
2023-05-12T07:08:14.158Z,74.39
2023-05-12T07:09:14.169Z,74.02
2023-05-12T07:10:14.293Z,74.73
2023-05-12T07:11:14.126Z,75.16
2023-05-12T07:12:14.112Z,77.28
2023-05-12T07:13:14.162Z,77.04
2023-05-12T07:14:14.127Z,76.34
2023-05-12T07:15:14.095Z,76.34
2023-05-12T07:16:14.162Z,75.50
2023-05-12T07:17:14.092Z,74.52
2023-05-12T07:18:14.082Z,74.66
2023-05-12T07:19:14.144Z,74.19
2023-05-12T07:20:14.088Z,73.88
2023-05-12T07:21:14.120Z,74.26
2023-05-12T07:22:14.540Z,72.47
2023-05-12T07:23:14.099Z,70.86
2023-05-12T07:24:14.054Z,72.07
2023-05-12T07:25:14.087Z,71.94
2023-05-12T07:26:14.100Z,72.17
2023-05-12T07:27:14.054Z,70.96
2023-05-12T07:28:14.044Z,70.19
2023-05-12T07:29:14.209Z,68.76
2023-05-12T07:30:14.034Z,68.76
2023-05-12T07:31:14.056Z,66.62
2023-05-12T07:32:14.029Z,66.28
2023-05-12T07:33:14.011Z,67.95
2023-05-12T07:34:13.978Z,68.25
2023-05-12T07:35:14.958Z,68.12
2023-05-12T07:36:13.961Z,66.28
2023-05-12T07:37:14.001Z,66.48
2023-05-12T07:38:13.951Z,65.78
2023-05-12T07:39:14.011Z,64.62
2023-05-12T07:40:13.984Z,63.65
2023-05-12T07:41:13.946Z,63.22
2023-05-12T07:42:13.976Z,62.68
2023-05-12T07:43:13.973Z,62.95
2023-05-12T07:44:13.914Z,60.89
2023-05-12T07:45:13.925Z,61.43
2023-05-12T07:46:13.888Z,57.76
2023-05-12T07:47:13.929Z,56.51
2023-05-12T07:48:13.949Z,54.56
2023-05-12T07:49:13.894Z,54.58
2023-05-12T07:50:13.903Z,55.76
2023-05-12T07:51:13.888Z,58.44
2023-05-12T07:52:13.960Z,60.42
2023-05-12T07:53:13.886Z,61.15
2023-05-12T07:54:13.846Z,63.58
2023-05-12T07:55:13.858Z,62.25
2023-05-12T07:56:13.866Z,59.69
2023-05-12T07:57:13.861Z,60.12
2023-05-12T07:58:13.971Z,60.95
2023-05-12T07:59:13.809Z,60.95
2023-05-12T08:00:13.854Z,61.12
2023-05-12T08:01:13.839Z,60.72
2023-05-12T08:02:13.826Z,58.99
2023-05-12T08:03:13.869Z,58.73
2023-05-12T08:04:13.874Z,57.01
2023-05-12T08:05:13.837Z,56.96
2023-05-12T08:06:13.790Z,55.33
2023-05-12T08:07:13.776Z,54.04
2023-05-12T08:08:13.813Z,55.41
2023-05-12T08:09:13.759Z,54.86
2023-05-12T08:10:13.843Z,56.57
2023-05-12T08:11:13.755Z,60.45
2023-05-12T08:12:13.748Z,60.45
2023-05-12T08:13:13.736Z,60.91
2023-05-12T08:14:13.755Z,61.41
2023-05-12T08:15:13.720Z,61.51
2023-05-12T08:16:13.727Z,61.24
2023-05-12T08:17:13.793Z,61.41
2023-05-12T08:18:13.769Z,61.17
2023-05-12T08:19:13.821Z,60.18
2023-05-12T08:20:13.706Z,60.78
2023-05-12T08:21:13.692Z,60.58
2023-05-12T08:22:13.709Z,59.68
2023-05-12T08:23:13.680Z,58.30
2023-05-12T08:24:13.713Z,58.58
2023-05-12T08:25:15.429Z,59.00
2023-05-12T08:26:13.650Z,60.44
2023-05-12T08:27:13.656Z,58.91
2023-05-12T08:28:13.642Z,61.07
2023-05-12T08:29:13.827Z,60.64
2023-05-12T08:30:13.724Z,60.86
2023-05-12T08:31:14.705Z,60.91
2023-05-12T08:32:13.629Z,60.24
2023-05-12T08:33:13.609Z,60.41
2023-05-12T08:34:13.641Z,60.18
2023-05-12T08:35:13.696Z,58.98
2023-05-12T08:36:13.599Z,59.18
2023-05-12T08:37:13.602Z,60.25
2023-05-12T08:38:13.600Z,59.23
2023-05-12T08:39:13.588Z,61.36
2023-05-12T08:40:13.590Z,60.53
2023-05-12T08:41:13.634Z,60.94
2023-05-12T08:42:13.572Z,61.11
2023-05-12T08:43:13.552Z,58.91
2023-05-12T08:44:13.562Z,58.32
2023-05-12T08:45:13.618Z,58.09
2023-05-12T08:46:13.821Z,56.54
2023-05-12T08:47:13.534Z,56.88
2023-05-12T08:48:13.609Z,55.06
2023-05-12T08:49:13.512Z,54.86
2023-05-12T08:50:13.534Z,53.78
2023-05-12T08:51:13.529Z,53.91
2023-05-12T08:52:13.530Z,55.11
2023-05-12T08:53:13.557Z,53.99
2023-05-12T08:54:13.498Z,54.77
2023-05-12T08:55:13.560Z,57.57
2023-05-12T08:57:14.521Z,55.79
2023-05-12T08:58:13.559Z,55.79
2023-05-12T08:59:13.459Z,55.41
2023-05-12T09:00:13.457Z,55.58
2023-05-12T09:01:13.578Z,55.09
2023-05-12T09:02:13.722Z,54.71
2023-05-12T09:03:13.491Z,55.51
2023-05-12T09:04:13.498Z,55.04
2023-05-12T09:05:13.472Z,56.06
2023-05-12T09:06:13.470Z,53.44
2023-05-12T09:07:13.428Z,55.69
2023-05-12T09:08:13.437Z,56.09
2023-05-12T09:09:13.417Z,55.21
2023-05-12T09:10:22.477Z,56.88
2023-05-12T09:11:15.444Z,54.49
2023-05-12T09:12:14.955Z,53.89
2023-05-12T09:13:13.416Z,52.34
2023-05-12T09:14:13.391Z,51.47
2023-05-12T09:15:13.386Z,50.83
2023-05-12T09:16:13.418Z,50.75
2023-05-12T09:17:13.363Z,51.57
2023-05-12T09:18:13.384Z,51.10
2023-05-12T09:19:13.403Z,50.75
2023-05-12T09:20:27.919Z,49.74
2023-05-12T09:21:15.389Z,49.04
2023-05-12T09:22:13.376Z,48.99
2023-05-12T09:23:13.345Z,50.75
2023-05-12T09:24:13.472Z,50.28
2023-05-12T09:25:14.716Z,50.40
2023-05-12T09:26:14.329Z,50.48
2023-05-12T09:27:13.308Z,50.45
2023-05-12T09:28:13.410Z,49.34
2023-05-12T09:29:20.787Z,51.54
2023-05-12T09:30:15.325Z,49.38
2023-05-12T09:31:14.676Z,49.43
2023-05-12T09:32:14.288Z,51.72
2023-05-12T09:33:13.355Z,49.44
2023-05-12T09:34:13.262Z,46.44
2023-05-12T09:35:14.298Z,46.11
2023-05-12T09:36:13.281Z,43.66
2023-05-12T09:37:15.177Z,44.43
2023-05-12T09:38:14.248Z,42.83
2023-05-12T09:39:13.251Z,43.19
2023-05-12T09:40:13.238Z,43.27
2023-05-12T09:41:13.265Z,44.52
2023-05-12T09:42:13.254Z,44.94
2023-05-12T09:43:15.351Z,44.24
2023-05-12T09:44:14.216Z,44.20
2023-05-12T09:45:13.241Z,43.84
2023-05-12T09:46:13.252Z,42.88
2023-05-12T09:47:13.191Z,44.46
2023-05-12T09:48:13.213Z,43.79
2023-05-12T09:49:14.251Z,42.56
2023-05-12T09:50:13.445Z,44.15
2023-05-12T09:51:13.207Z,46.67
2023-05-12T09:52:13.170Z,44.62
2023-05-12T09:53:13.165Z,44.13
2023-05-12T09:54:13.165Z,46.12
2023-05-12T09:55:13.165Z,47.89
2023-05-12T09:56:13.145Z,47.42
2023-05-12T09:57:13.187Z,47.23
2023-05-12T09:58:13.194Z,44.62
2023-05-12T09:59:13.115Z,42.52
2023-05-12T10:00:21.501Z,41.22
2023-05-12T10:01:22.643Z,41.14
2023-05-12T10:02:15.179Z,38.36
2023-05-12T10:03:13.188Z,39.76
2023-05-12T10:04:13.109Z,42.60
2023-05-12T10:05:13.186Z,42.50
2023-05-12T10:06:13.186Z,41.47
2023-05-12T10:07:13.112Z,42.40
2023-05-12T10:08:13.073Z,42.58
2023-05-12T10:09:13.063Z,42.66
2023-05-12T10:10:13.043Z,40.70
2023-05-12T10:11:13.045Z,38.36
2023-05-12T10:12:13.058Z,38.09
2023-05-12T10:13:13.103Z,39.37
2023-05-12T10:14:13.127Z,37.82
2023-05-12T10:15:13.032Z,37.74
2023-05-12T10:16:13.136Z,38.79
2023-05-12T10:17:13.081Z,40.15
2023-05-12T10:18:13.036Z,41.12
2023-05-12T10:19:13.024Z,42.43
2023-05-12T10:20:13.006Z,42.76
2023-05-12T10:21:13.017Z,43.60
2023-05-12T10:22:13.065Z,46.42
2023-05-12T10:23:12.974Z,46.81
2023-05-12T10:24:12.989Z,46.64
2023-05-12T10:25:12.978Z,47.05
2023-05-12T10:26:12.945Z,46.95
2023-05-12T10:27:12.964Z,47.23
2023-05-12T10:28:12.941Z,46.42
2023-05-12T10:29:13.001Z,46.24
2023-05-12T10:30:12.939Z,46.61
2023-05-12T10:31:13.044Z,46.86
2023-05-12T10:32:12.930Z,47.65
2023-05-12T10:33:12.919Z,48.84
2023-05-12T10:34:12.923Z,47.95
2023-05-12T10:35:12.895Z,46.83
2023-05-12T10:36:12.916Z,48.65
2023-05-12T10:37:12.868Z,50.16
2023-05-12T10:38:12.962Z,50.01
2023-05-12T10:39:12.908Z,52.69
2023-05-12T10:40:12.876Z,52.89
2023-05-12T10:41:12.870Z,51.72
2023-05-12T10:42:12.882Z,52.29
2023-05-12T10:43:13.066Z,52.00
2023-05-12T10:44:12.865Z,52.29
2023-05-12T10:45:12.824Z,50.98
2023-05-12T10:46:12.878Z,47.60
2023-05-12T10:47:13.249Z,47.05
2023-05-12T10:48:13.852Z,47.77
2023-05-12T10:49:12.841Z,48.86
2023-05-12T10:50:12.808Z,47.59
2023-05-12T10:51:12.801Z,47.34
2023-05-12T10:52:12.848Z,46.95
2023-05-12T10:53:12.777Z,47.00
2023-05-12T10:54:12.790Z,47.80
2023-05-12T10:55:12.866Z,47.16
2023-05-12T10:56:13.012Z,46.56
2023-05-12T10:57:15.003Z,45.54
2023-05-12T10:58:15.096Z,46.81
2023-05-12T10:59:13.142Z,46.34
2023-05-12T11:00:13.102Z,47.23
2023-05-12T11:01:13.179Z,46.93
2023-05-12T11:02:13.639Z,47.73
2023-05-12T11:03:13.967Z,46.83
2023-05-12T11:04:13.172Z,48.27
2023-05-12T11:05:13.349Z,47.62
2023-05-12T11:06:14.114Z,49.46
2023-05-12T11:07:14.163Z,49.04
2023-05-12T11:08:14.272Z,49.31
2023-05-12T11:09:13.914Z,48.52
2023-05-12T11:11:13.168Z,49.41
2023-05-12T11:12:12.658Z,48.77
2023-05-12T11:13:12.642Z,48.25
2023-05-12T11:14:12.683Z,47.35
2023-05-12T11:15:12.722Z,46.14
2023-05-12T11:16:12.733Z,44.11
2023-05-12T11:17:12.682Z,43.99
2023-05-12T11:18:12.695Z,45.38
2023-05-12T11:19:12.863Z,47.45
2023-05-12T11:20:12.647Z,46.95
2023-05-12T11:21:12.619Z,47.16
2023-05-12T11:22:12.694Z,46.70
2023-05-12T11:23:12.577Z,44.40
2023-05-12T11:24:13.538Z,44.32
2023-05-12T11:25:12.693Z,44.09
2023-05-12T11:26:12.588Z,44.82
2023-05-12T11:27:12.570Z,45.01
2023-05-12T11:28:12.567Z,46.01
2023-05-12T11:29:12.546Z,41.75
2023-05-12T11:30:12.560Z,41.00
2023-05-12T11:31:12.630Z,41.16
2023-05-12T11:32:12.601Z,42.26
2023-05-12T11:33:12.570Z,42.36
2023-05-12T11:34:13.603Z,42.88
2023-05-12T11:35:13.513Z,43.59
2023-05-12T11:36:12.538Z,43.33
2023-05-12T11:37:12.495Z,43.63
2023-05-12T11:38:12.500Z,43.79
2023-05-12T11:39:12.475Z,43.84
2023-05-12T11:40:12.483Z,40.94
2023-05-12T11:41:12.501Z,42.07
2023-05-12T11:42:13.921Z,42.88
2023-05-12T11:43:13.517Z,43.12
2023-05-12T11:44:12.478Z,43.19
2023-05-12T11:45:12.474Z,42.48
2023-05-12T11:46:12.460Z,42.13
2023-05-12T11:47:12.441Z,42.54
2023-05-12T11:48:13.500Z,42.64
2023-05-12T11:49:13.441Z,44.02
2023-05-12T11:50:12.499Z,42.86
2023-05-12T11:51:12.430Z,44.29
2023-05-12T11:52:12.395Z,44.74
2023-05-12T11:53:13.123Z,42.32
2023-05-12T11:54:12.403Z,41.00
2023-05-12T11:55:12.383Z,41.30
2023-05-12T11:56:12.401Z,39.93
2023-05-12T11:57:12.400Z,38.85
2023-05-12T11:58:12.428Z,39.91
2023-05-12T11:59:12.413Z,37.91
2023-05-12T12:00:12.400Z,37.51
2023-05-12T12:01:12.368Z,37.41
2023-05-12T12:02:12.398Z,38.23
2023-05-12T12:03:12.450Z,38.24
2023-05-12T12:04:12.449Z,38.24
2023-05-12T12:05:12.340Z,38.64
2023-05-12T12:06:12.318Z,37.75
2023-05-12T12:07:12.337Z,38.66
2023-05-12T12:08:12.338Z,38.84
2023-05-12T12:09:12.345Z,38.64
2023-05-12T12:10:12.429Z,39.57
2023-05-12T12:11:12.425Z,41.97
2023-05-12T12:12:12.312Z,42.94
2023-05-12T12:13:12.317Z,40.23
2023-05-12T12:14:12.343Z,38.94
2023-05-12T12:15:12.295Z,39.51
2023-05-12T12:16:14.749Z,38.60
2023-05-12T12:17:13.288Z,38.98
2023-05-12T12:18:12.398Z,38.53
2023-05-12T12:19:12.361Z,36.22
2023-05-12T12:20:12.370Z,37.36
2023-05-12T12:21:12.260Z,39.18
2023-05-12T12:22:12.268Z,39.89
2023-05-12T12:23:12.236Z,39.85
2023-05-12T12:24:12.258Z,41.75
2023-05-12T12:25:12.222Z,42.05
2023-05-12T12:26:12.238Z,41.63
2023-05-12T12:27:12.207Z,42.65
2023-05-12T12:28:12.196Z,41.75
2023-05-12T12:29:12.199Z,42.01
2023-05-12T12:30:12.190Z,41.82
2023-05-12T12:31:12.233Z,41.34
2023-05-12T12:32:12.170Z,42.71
2023-05-12T12:33:12.239Z,42.63
2023-05-12T12:34:12.200Z,42.72
2023-05-12T12:35:12.187Z,43.32
2023-05-12T12:36:12.190Z,42.53
2023-05-12T12:37:12.145Z,41.06
2023-05-12T12:38:12.136Z,39.91
2023-05-12T12:39:12.161Z,38.06
2023-05-12T12:40:12.131Z,36.83
2023-05-12T12:41:12.147Z,37.94
2023-05-12T12:42:12.168Z,37.24
2023-05-12T12:43:12.109Z,33.84
2023-05-12T12:44:14.199Z,33.20
2023-05-12T12:45:12.109Z,33.18
2023-05-12T12:46:12.112Z,34.81
2023-05-12T12:47:12.222Z,34.95
2023-05-12T12:48:12.097Z,35.42
2023-05-12T12:49:12.074Z,36.15
2023-05-12T12:50:12.066Z,37.57
2023-05-12T12:51:12.104Z,39.11
2023-05-12T12:52:12.104Z,39.92
2023-05-12T12:53:12.077Z,40.52
2023-05-12T12:54:12.074Z,41.24
2023-05-12T12:55:12.048Z,41.53